»·PEaware :: SWA264 KSNA-KLAS

SWA264 :: KSNA-KLAS

FLIGHT INFORMATION

Flight Status: Arrived
Operator:
Southwest Airlines
More flights by this operator :: More flights under this callsign
Pilot: Cody B. (17747)
Aircraft: BOEING 737-800
(B738)
More flights by this aircraft type
Origin: KSNA John Wayne-Orange Co
United States
Destination: KLAS McCarran Intl
United States
More flights between these airports :: More routes between these airports
Route: +FINZZ2 MISEN KEPEC6
File this flight plan on PilotEdge
Remarks: Just to inform you, I am new to PilotEdge.
Altitude:
(Current/Filed)
29,000ft
Speed:
(Current/Filed)
451kts
Departed: 03-Jan-18 12:49 PM
Arrived: 03-Jan-18 01:42 PM
Distance/Time
Traveled:
197nm/0:53
Distance/Time
To Go:
Arrived

Flight Plot

Page will automatically refresh every two minutes.

Flight plan parsing failed; only flown route is shown


Map Options




Map Legend


Flown Route
Filed Route
Departure Airport
Arrival Airport
Navaid (VOR, NDB)
Fix

Horizontal Profiles

Position Reports

Time Latitude Longitude Heading Altitude Ground
Speed
03-Jan-18 12:27 33.675729 -117.864666 117 47ft 0kts
03-Jan-18 12:28 33.675729 -117.864666 117 47ft 0kts
03-Jan-18 12:29 33.675729 -117.864666 117 47ft 0kts
03-Jan-18 12:30 33.675729 -117.864666 117 47ft 0kts
03-Jan-18 12:31 33.675729 -117.864666 117 47ft 0kts
03-Jan-18 12:32 33.675729 -117.864666 117 47ft 0kts
03-Jan-18 12:33 33.675729 -117.864666 117 47ft 0kts
03-Jan-18 12:34 33.675729 -117.864666 117 47ft 0kts
03-Jan-18 12:35 33.675729 -117.864666 117 47ft 0kts
03-Jan-18 12:36 33.675729 -117.864666 117 47ft 0kts
03-Jan-18 12:37 33.675729 -117.864666 117 47ft 0kts
03-Jan-18 12:38 33.675729 -117.864666 117 47ft 0kts
03-Jan-18 12:39 33.675729 -117.864666 117 47ft 0kts
03-Jan-18 12:40 33.675729 -117.864666 117 47ft 0kts
03-Jan-18 12:41 33.675729 -117.864666 117 47ft 0kts
03-Jan-18 12:42 33.675729 -117.864666 117 47ft 0kts
03-Jan-18 12:43 33.675729 -117.864666 117 47ft 0kts
03-Jan-18 12:44 33.675945 -117.865185 90 47ft 2kts
03-Jan-18 12:45 33.675798 -117.865424 27 48ft 0kts
03-Jan-18 12:46 33.675798 -117.865424 27 48ft 0kts
03-Jan-18 12:47 33.675798 -117.865424 27 48ft 0kts
03-Jan-18 12:48 33.676028 -117.865275 27 47ft 1kts
03-Jan-18 12:49 33.677342 -117.864430 27 44ft 10kts
03-Jan-18 12:50 33.679383 -117.863138 27 43ft 8kts
03-Jan-18 12:51 33.680617 -117.863028 299 43ft 0kts
03-Jan-18 12:52 33.680701 -117.863206 299 43ft 3kts
03-Jan-18 12:53 33.681145 -117.864196 298 44ft 0kts
03-Jan-18 12:54 33.681196 -117.864310 298 44ft 2kts
03-Jan-18 12:55 33.677844 -117.867457 207 50ft 97kts
03-Jan-18 12:56 33.629953 -117.890756 186 2421ft 230kts
03-Jan-18 12:57 33.565659 -117.904815 210 4964ft 246kts
03-Jan-18 12:58 33.521437 -117.955029 222 4999ft 247kts
03-Jan-18 12:59 33.498572 -118.026442 295 6735ft 260kts
03-Jan-18 13:00 33.549089 -118.090837 313 9727ft 276kts
03-Jan-18 13:01 33.616423 -118.116448 24 13316ft 287kts
03-Jan-18 13:02 33.690846 -118.071028 26 15649ft 339kts
03-Jan-18 13:03 33.778954 -118.019155 26 16964ft 363kts
03-Jan-18 13:04 33.866386 -117.968079 26 16964ft 362kts
03-Jan-18 13:05 33.949658 -117.905868 38 16964ft 361kts
03-Jan-18 13:06 34.026216 -117.835217 38 17004ft 361kts
03-Jan-18 13:07 34.100594 -117.761959 50 17018ft 360kts
03-Jan-18 13:08 34.157406 -117.676736 51 17008ft 357kts
03-Jan-18 13:09 34.220159 -117.583115 51 19525ft 373kts
03-Jan-18 13:10 34.284534 -117.487387 51 22266ft 395kts
03-Jan-18 13:11 34.353445 -117.384353 51 23173ft 403kts
03-Jan-18 13:12 34.422755 -117.280284 52 24411ft 414kts
03-Jan-18 13:13 34.496698 -117.169296 52 26725ft 436kts
03-Jan-18 13:14 34.573714 -117.054954 51 29190ft 439kts
03-Jan-18 13:15 34.651130 -116.941781 51 29257ft 438kts
03-Jan-18 13:16 34.729041 -116.827672 51 29270ft 451kts
03-Jan-18 13:17 34.808439 -116.711524 50 28105ft 432kts
03-Jan-18 13:18 34.890663 -116.608390 37 25518ft 424kts
03-Jan-18 13:19 34.981061 -116.521499 38 24225ft 414kts
03-Jan-18 13:20 35.070084 -116.435153 38 24232ft 412kts
03-Jan-18 13:21 35.155009 -116.353260 37 24229ft 412kts
03-Jan-18 13:22 35.241816 -116.269333 38 24226ft 412kts
03-Jan-18 13:23 35.331517 -116.182365 37 24227ft 415kts
03-Jan-18 13:24 35.421789 -116.094882 37 24227ft 415kts
03-Jan-18 13:25 35.511798 -116.007700 37 23988ft 411kts
03-Jan-18 13:26 35.600013 -115.922304 37 22485ft 399kts
03-Jan-18 13:27 35.684614 -115.840454 37 20287ft 382kts
03-Jan-18 13:28 35.763998 -115.763701 37 18097ft 351kts
03-Jan-18 13:29 35.838171 -115.692026 36 15435ft 334kts
03-Jan-18 13:30 35.908873 -115.623776 36 13135ft 321kts
03-Jan-18 13:31 35.974562 -115.551866 58 13015ft 332kts
03-Jan-18 13:32 36.008256 -115.449026 61 11802ft 317kts
03-Jan-18 13:33 36.038479 -115.351740 81 10993ft 288kts
03-Jan-18 13:34 36.026169 -115.262116 100 9707ft 269kts
03-Jan-18 13:35 36.016988 -115.172620 95 8728ft 269kts
03-Jan-18 13:36 36.010579 -115.084110 94 8031ft 257kts
03-Jan-18 13:37 36.005530 -115.001473 93 8014ft 238kts
03-Jan-18 13:38 36.000596 -114.919442 93 7989ft 240kts
03-Jan-18 13:39 36.002807 -114.839745 55 7910ft 221kts
03-Jan-18 13:40 36.050838 -114.807959 18 7131ft 189kts
03-Jan-18 13:41 36.091451 -114.821621 272 5992ft 171kts
03-Jan-18 13:42 36.078362 -114.877202 259 4806ft 165kts
03-Jan-18 13:43 36.071590 -114.932999 270 3822ft 166kts
03-Jan-18 13:44 36.073834 -114.991021 269 3800ft 170kts
03-Jan-18 13:45 36.073226 -115.048926 271 3615ft 155kts
03-Jan-18 13:46 36.073619 -115.097757 271 2594ft 138kts
03-Jan-18 13:47 36.073615 -115.141924 269 2091ft 65kts
03-Jan-18 13:48 36.074247 -115.149496 297 2117ft 0kts
03-Jan-18 13:49 36.074304 -115.149642 294 2117ft 1kts
03-Jan-18 13:50 36.075233 -115.151257 319 2122ft 7kts
03-Jan-18 13:51 36.076822 -115.152242 333 2122ft 7kts
03-Jan-18 13:52 36.077940 -115.149331 94 2109ft 23kts
03-Jan-18 13:53 36.079462 -115.146815 21 2097ft 2kts
03-Jan-18 13:54 36.079618 -115.146737 21 2096ft 0kts
03-Jan-18 13:55 36.079618 -115.146737 21 2096ft 0kts
03-Jan-18 13:56 36.079618 -115.146737 21 2096ft 0kts
03-Jan-18 13:57 36.079618 -115.146737 21 2096ft 0kts
03-Jan-18 13:58 36.079618 -115.146737 21 2096ft 0kts
03-Jan-18 13:59 36.079618 -115.146737 21 2096ft 0kts
03-Jan-18 14:00 36.079618 -115.146737 21 2096ft 0kts
03-Jan-18 14:01 36.079618 -115.146737 21 2096ft 0kts
03-Jan-18 14:02 36.079618 -115.146737 21 2096ft 0kts

Navigation Log

Ident Type
Flight plan parsing failed, navigation log unavailable